Telemaco Borba, Brazil
Current Conditions -  °F | °C
As of 5:00 PM on Tuesday 27 Jan 2015 (Local Time) from SBLO Reporting Station
Scattered Clouds Scattered Clouds  
Wind Chill: 82°   Ceiling: Unl
Heat Index: 86°   Visibility: 6mi
Dew Point: 70°   Wind: 5mph
Humidity: 66%   Direction: 150°SSE
Pressure: 29.91"   Gusts: NA
Location:  24.32°S, 50.62°W
Report Text: SBLO 271900Z 15004KT 9999 SCT030 28/21 Q1013
Loading
Personal Weather Stations






























Interactive Weather Map New forecast layout! Learn more

10-Day Weather Forecast

Advertisements
Track Severe Weather on mobile